sensor_id;sensor_type;location;lat;lon;timestamp;pressure;altitude;pressure_sealevel;temperature;humidity
11936;BME280;6027;48.576;9.180;2023-05-27T00:01:23;97529.81;;;16.24;56.23
11936;BME280;6027;48.576;9.180;2023-05-27T00:03:48;97528.16;;;16.23;56.37
11936;BME280;6027;48.576;9.180;2023-05-27T00:06:14;97524.66;;;16.16;57.23
11936;BME280;6027;48.576;9.180;2023-05-27T00:08:39;97537.81;;;16.17;56.85
11936;BME280;6027;48.576;9.180;2023-05-27T00:11:05;97523.41;;;16.12;56.94
11936;BME280;6027;48.576;9.180;2023-05-27T00:13:31;97520.09;;;16.03;57.09
11936;BME280;6027;48.576;9.180;2023-05-27T00:15:56;97527.47;;;16.01;57.36
11936;BME280;6027;48.576;9.180;2023-05-27T00:18:21;97527.00;;;15.84;57.36
11936;BME280;6027;48.576;9.180;2023-05-27T00:20:47;97531.75;;;15.89;58.04
11936;BME280;6027;48.576;9.180;2023-05-27T00:23:13;97527.84;;;15.85;57.78
11936;BME280;6027;48.576;9.180;2023-05-27T00:25:39;97523.09;;;15.80;57.72
11936;BME280;6027;48.576;9.180;2023-05-27T00:28:05;97530.94;;;15.88;57.61
11936;BME280;6027;48.576;9.180;2023-05-27T00:30:30;97535.41;;;15.75;58.20
11936;BME280;6027;48.576;9.180;2023-05-27T00:32:56;97531.47;;;15.71;57.84
11936;BME280;6027;48.576;9.180;2023-05-27T00:35:21;97518.19;;;15.49;58.85
11936;BME280;6027;48.576;9.180;2023-05-27T00:37:46;97532.16;;;15.51;58.99
11936;BME280;6027;48.576;9.180;2023-05-27T00:40:14;97533.81;;;15.52;59.16
11936;BME280;6027;48.576;9.180;2023-05-27T00:42:40;97518.59;;;15.46;59.12
11936;BME280;6027;48.576;9.180;2023-05-27T00:45:05;97518.34;;;15.41;59.32
11936;BME280;6027;48.576;9.180;2023-05-27T00:47:32;97525.75;;;15.39;59.75
11936;BME280;6027;48.576;9.180;2023-05-27T00:49:58;97521.63;;;15.37;59.75
11936;BME280;6027;48.576;9.180;2023-05-27T00:52:24;97533.56;;;15.47;59.82
11936;BME280;6027;48.576;9.180;2023-05-27T00:54:51;97533.16;;;15.44;59.69
11936;BME280;6027;48.576;9.180;2023-05-27T00:57:17;97529.22;;;15.40;59.79
11936;BME280;6027;48.576;9.180;2023-05-27T00:59:43;97519.94;;;15.29;59.95
11936;BME280;6027;48.576;9.180;2023-05-27T01:02:08;97522.34;;;15.24;60.41
11936;BME280;6027;48.576;9.180;2023-05-27T01:04:33;97518.72;;;15.32;60.05
11936;BME280;6027;48.576;9.180;2023-05-27T01:12:55;97515.16;;;15.25;60.86
11936;BME280;6027;48.576;9.180;2023-05-27T01:15:24;97511.47;;;15.19;61.03
11936;BME280;6027;48.576;9.180;2023-05-27T01:17:55;97514.53;;;15.16;61.24
11936;BME280;6027;48.576;9.180;2023-05-27T01:20:20;97510.63;;;15.18;61.23
11936;BME280;6027;48.576;9.180;2023-05-27T01:22:46;97506.03;;;15.06;61.62
11936;BME280;6027;48.576;9.180;2023-05-27T01:25:12;97507.91;;;15.12;61.48
11936;BME280;6027;48.576;9.180;2023-05-27T01:27:39;97508.25;;;15.02;62.10
11936;BME280;6027;48.576;9.180;2023-05-27T01:30:08;97498.84;;;15.06;61.99
11936;BME280;6027;48.576;9.180;2023-05-27T01:32:39;97500.94;;;15.11;62.13
11936;BME280;6027;48.576;9.180;2023-05-27T01:35:07;97500.09;;;15.10;62.20
11936;BME280;6027;48.576;9.180;2023-05-27T01:37:37;97498.84;;;15.06;62.05
11936;BME280;6027;48.576;9.180;2023-05-27T01:40:05;97498.47;;;15.09;62.30
11936;BME280;6027;48.576;9.180;2023-05-27T01:42:36;97497.56;;;14.96;62.95
11936;BME280;6027;48.576;9.180;2023-05-27T01:45:04;97495.28;;;14.93;62.97
11936;BME280;6027;48.576;9.180;2023-05-27T01:47:31;97495.19;;;14.79;63.52
11936;BME280;6027;48.576;9.180;2023-05-27T01:49:56;97491.50;;;14.80;64.04
11936;BME280;6027;48.576;9.180;2023-05-27T01:52:21;97488.00;;;14.80;64.07
11936;BME280;6027;48.576;9.180;2023-05-27T01:54:47;97486.38;;;14.79;63.74
11936;BME280;6027;48.576;9.180;2023-05-27T01:57:12;97488.41;;;14.77;63.81
11936;BME280;6027;48.576;9.180;2023-05-27T01:59:37;97483.25;;;14.75;63.98
11936;BME280;6027;48.576;9.180;2023-05-27T02:02:04;97478.06;;;14.67;64.21
11936;BME280;6027;48.576;9.180;2023-05-27T02:04:30;97475.72;;;14.58;64.30
11936;BME280;6027;48.576;9.180;2023-05-27T02:06:56;97479.50;;;14.70;64.58
11936;BME280;6027;48.576;9.180;2023-05-27T02:09:21;97478.25;;;14.66;64.72
11936;BME280;6027;48.576;9.180;2023-05-27T02:11:46;97474.94;;;14.64;64.33
11936;BME280;6027;48.576;9.180;2023-05-27T02:14:12;97479.22;;;14.58;65.56
11936;BME280;6027;48.576;9.180;2023-05-27T02:16:38;97472.69;;;14.61;65.30
11936;BME280;6027;48.576;9.180;2023-05-27T02:19:04;97473.69;;;14.60;65.62
11936;BME280;6027;48.576;9.180;2023-05-27T02:21:30;97475.97;;;14.63;65.48
11936;BME280;6027;48.576;9.180;2023-05-27T02:23:55;97487.78;;;14.54;65.41
11936;BME280;6027;48.576;9.180;2023-05-27T02:26:21;97476.75;;;14.57;65.87
11936;BME280;6027;48.576;9.180;2023-05-27T02:28:47;97475.75;;;14.64;66.20
11936;BME280;6027;48.576;9.180;2023-05-27T02:31:12;97477.59;;;14.64;65.42
11936;BME280;6027;48.576;9.180;2023-05-27T02:33:38;97479.25;;;14.65;66.39
11936;BME280;6027;48.576;9.180;2023-05-27T02:36:04;97478.63;;;14.63;66.69
11936;BME280;6027;48.576;9.180;2023-05-27T02:38:29;97471.44;;;14.63;67.12
11936;BME280;6027;48.576;9.180;2023-05-27T02:40:55;97471.03;;;14.60;67.67
11936;BME280;6027;48.576;9.180;2023-05-27T02:43:20;97475.09;;;14.56;68.56
11936;BME280;6027;48.576;9.180;2023-05-27T02:45:45;97470.09;;;14.46;68.49
11936;BME280;6027;48.576;9.180;2023-05-27T02:48:11;97475.72;;;14.36;68.71
11936;BME280;6027;48.576;9.180;2023-05-27T02:50:36;97469.88;;;14.26;69.69
11936;BME280;6027;48.576;9.180;2023-05-27T02:53:02;97473.75;;;14.24;69.64
11936;BME280;6027;48.576;9.180;2023-05-27T02:55:27;97475.97;;;14.20;70.34
11936;BME280;6027;48.576;9.180;2023-05-27T02:57:53;97476.47;;;14.09;70.55
11936;BME280;6027;48.576;9.180;2023-05-27T03:00:18;97472.09;;;14.01;70.34
11936;BME280;6027;48.576;9.180;2023-05-27T03:02:44;97474.31;;;13.98;71.15
11936;BME280;6027;48.576;9.180;2023-05-27T03:05:09;97477.22;;;13.81;72.60
11936;BME280;6027;48.576;9.180;2023-05-27T03:07:35;97470.25;;;13.80;72.85
11936;BME280;6027;48.576;9.180;2023-05-27T03:10:00;97470.06;;;13.67;73.88
11936;BME280;6027;48.576;9.180;2023-05-27T03:12:26;97464.38;;;13.70;74.31
11936;BME280;6027;48.576;9.180;2023-05-27T03:14:51;97465.50;;;13.61;75.28
11936;BME280;6027;48.576;9.180;2023-05-27T03:17:19;97463.75;;;13.68;76.16
11936;BME280;6027;48.576;9.180;2023-05-27T03:19:45;97467.16;;;13.62;76.44
11936;BME280;6027;48.576;9.180;2023-05-27T03:22:11;97463.22;;;13.58;77.03
11936;BME280;6027;48.576;9.180;2023-05-27T03:24:36;97471.94;;;13.52;77.97
11936;BME280;6027;48.576;9.180;2023-05-27T03:29:30;97468.56;;;13.43;78.08
11936;BME280;6027;48.576;9.180;2023-05-27T03:31:56;97471.78;;;13.39;78.27
11936;BME280;6027;48.576;9.180;2023-05-27T03:34:22;97462.34;;;13.36;79.39
11936;BME280;6027;48.576;9.180;2023-05-27T03:36:47;97478.28;;;13.36;80.23
11936;BME280;6027;48.576;9.180;2023-05-27T03:39:15;97470.13;;;13.38;79.12
11936;BME280;6027;48.576;9.180;2023-05-27T03:41:42;97465.72;;;13.30;78.51
11936;BME280;6027;48.576;9.180;2023-05-27T03:44:07;97471.03;;;13.30;78.90
11936;BME280;6027;48.576;9.180;2023-05-27T03:46:33;97476.53;;;13.29;78.76
11936;BME280;6027;48.576;9.180;2023-05-27T03:48:59;97475.47;;;13.23;78.95
11936;BME280;6027;48.576;9.180;2023-05-27T03:51:25;97467.56;;;13.15;79.27
11936;BME280;6027;48.576;9.180;2023-05-27T03:53:50;97469.03;;;13.18;79.65
11936;BME280;6027;48.576;9.180;2023-05-27T03:56:16;97469.88;;;13.18;80.65
11936;BME280;6027;48.576;9.180;2023-05-27T03:58:41;97467.94;;;13.27;81.27
11936;BME280;6027;48.576;9.180;2023-05-27T04:01:07;97471.69;;;13.32;81.23
11936;BME280;6027;48.576;9.180;2023-05-27T04:03:33;97472.34;;;13.34;81.23
11936;BME280;6027;48.576;9.180;2023-05-27T04:05:59;97474.25;;;13.40;80.18
11936;BME280;6027;48.576;9.180;2023-05-27T04:08:25;97479.13;;;13.37;80.33
11936;BME280;6027;48.576;9.180;2023-05-27T04:10:54;97477.75;;;13.41;80.45
11936;BME280;6027;48.576;9.180;2023-05-27T04:13:19;97471.97;;;13.37;80.55
11936;BME280;6027;48.576;9.180;2023-05-27T04:15:45;97474.91;;;13.42;81.00
11936;BME280;6027;48.576;9.180;2023-05-27T04:18:11;97477.28;;;13.37;78.81
11936;BME280;6027;48.576;9.180;2023-05-27T04:20:37;97477.84;;;13.33;77.92
11936;BME280;6027;48.576;9.180;2023-05-27T04:23:08;97474.81;;;13.36;77.61
11936;BME280;6027;48.576;9.180;2023-05-27T04:25:34;97483.78;;;13.35;77.74
11936;BME280;6027;48.576;9.180;2023-05-27T04:28:01;97490.59;;;13.37;77.13
11936;BME280;6027;48.576;9.180;2023-05-27T04:30:30;97482.06;;;13.42;77.05
11936;BME280;6027;48.576;9.180;2023-05-27T04:32:55;97475.59;;;13.51;76.92
11936;BME280;6027;48.576;9.180;2023-05-27T04:35:21;97476.19;;;13.46;76.50
11936;BME280;6027;48.576;9.180;2023-05-27T04:37:46;97479.91;;;13.52;77.05
11936;BME280;6027;48.576;9.180;2023-05-27T04:40:13;97472.78;;;13.53;76.23
11936;BME280;6027;48.576;9.180;2023-05-27T04:42:38;97473.41;;;13.55;76.50
11936;BME280;6027;48.576;9.180;2023-05-27T04:45:05;97481.03;;;13.58;77.27
11936;BME280;6027;48.576;9.180;2023-05-27T04:47:33;97474.69;;;13.59;76.83
11936;BME280;6027;48.576;9.180;2023-05-27T04:50:03;97476.53;;;13.58;76.36
11936;BME280;6027;48.576;9.180;2023-05-27T04:52:29;97482.41;;;13.54;77.42
11936;BME280;6027;48.576;9.180;2023-05-27T04:54:55;97478.63;;;13.63;77.45
11936;BME280;6027;48.576;9.180;2023-05-27T04:57:21;97483.97;;;13.63;77.80
11936;BME280;6027;48.576;9.180;2023-05-27T04:59:47;97472.94;;;13.66;77.44
11936;BME280;6027;48.576;9.180;2023-05-27T05:02:44;97481.53;;;13.68;77.04
11936;BME280;6027;48.576;9.180;2023-05-27T05:05:12;97479.59;;;13.76;77.51
11936;BME280;6027;48.576;9.180;2023-05-27T05:07:39;97475.03;;;13.70;78.20
11936;BME280;6027;48.576;9.180;2023-05-27T05:10:09;97475.94;;;13.77;79.79
11936;BME280;6027;48.576;9.180;2023-05-27T05:12:35;97477.84;;;13.83;79.57
11936;BME280;6027;48.576;9.180;2023-05-27T05:15:05;97479.75;;;13.90;79.42
11936;BME280;6027;48.576;9.180;2023-05-27T05:17:32;97472.78;;;13.89;78.40
11936;BME280;6027;48.576;9.180;2023-05-27T05:19:57;97474.47;;;13.75;78.26
11936;BME280;6027;48.576;9.180;2023-05-27T05:22:22;97483.56;;;13.80;77.10
11936;BME280;6027;48.576;9.180;2023-05-27T05:24:49;97478.09;;;13.89;76.88
11936;BME280;6027;48.576;9.180;2023-05-27T05:27:15;97473.16;;;13.86;76.37
11936;BME280;6027;48.576;9.180;2023-05-27T05:29:40;97471.19;;;13.94;77.16
11936;BME280;6027;48.576;9.180;2023-05-27T05:32:06;97476.41;;;14.02;76.47
11936;BME280;6027;48.576;9.180;2023-05-27T05:34:32;97479.19;;;13.94;76.06
11936;BME280;6027;48.576;9.180;2023-05-27T05:36:58;97485.78;;;13.98;76.22
11936;BME280;6027;48.576;9.180;2023-05-27T05:39:23;97489.31;;;14.05;76.85
11936;BME280;6027;48.576;9.180;2023-05-27T05:41:49;97484.41;;;14.02;77.01
11936;BME280;6027;48.576;9.180;2023-05-27T05:44:15;97483.59;;;14.02;77.17
11936;BME280;6027;48.576;9.180;2023-05-27T05:46:41;97491.81;;;14.07;77.09
11936;BME280;6027;48.576;9.180;2023-05-27T05:49:06;97487.47;;;14.21;76.46
11936;BME280;6027;48.576;9.180;2023-05-27T05:51:31;97485.63;;;14.21;75.53
11936;BME280;6027;48.576;9.180;2023-05-27T05:53:57;97489.53;;;14.25;75.13
11936;BME280;6027;48.576;9.180;2023-05-27T05:56:24;97482.13;;;14.21;75.48
11936;BME280;6027;48.576;9.180;2023-05-27T05:58:50;97488.09;;;14.23;75.11
11936;BME280;6027;48.576;9.180;2023-05-27T06:01:16;97481.31;;;14.20;76.01
11936;BME280;6027;48.576;9.180;2023-05-27T06:03:41;97482.56;;;14.24;74.78
11936;BME280;6027;48.576;9.180;2023-05-27T06:06:07;97479.88;;;14.24;75.51
11936;BME280;6027;48.576;9.180;2023-05-27T06:08:32;97474.63;;;14.31;75.04
11936;BME280;6027;48.576;9.180;2023-05-27T06:10:58;97474.91;;;14.36;74.86
11936;BME280;6027;48.576;9.180;2023-05-27T06:13:23;97482.78;;;14.44;75.93
11936;BME280;6027;48.576;9.180;2023-05-27T06:15:50;97483.66;;;14.51;76.19
11936;BME280;6027;48.576;9.180;2023-05-27T06:18:15;97474.34;;;14.62;75.64
11936;BME280;6027;48.576;9.180;2023-05-27T06:20:41;97478.94;;;14.74;75.20
11936;BME280;6027;48.576;9.180;2023-05-27T06:23:06;97478.13;;;14.74;73.63
11936;BME280;6027;48.576;9.180;2023-05-27T06:25:32;97477.28;;;14.73;74.66
11936;BME280;6027;48.576;9.180;2023-05-27T06:27:57;97472.03;;;14.80;75.71
11936;BME280;6027;48.576;9.180;2023-05-27T06:30:23;97473.75;;;14.94;74.70
11936;BME280;6027;48.576;9.180;2023-05-27T06:32:49;97476.22;;;14.96;74.47
11936;BME280;6027;48.576;9.180;2023-05-27T06:35:15;97479.78;;;15.09;74.20
11936;BME280;6027;48.576;9.180;2023-05-27T06:37:41;97479.22;;;15.14;72.54
11936;BME280;6027;48.576;9.180;2023-05-27T06:40:07;97479.84;;;15.16;73.22
11936;BME280;6027;48.576;9.180;2023-05-27T06:42:32;97473.06;;;15.13;71.83
11936;BME280;6027;48.576;9.180;2023-05-27T06:44:58;97473.28;;;15.18;72.28
11936;BME280;6027;48.576;9.180;2023-05-27T06:47:23;97480.50;;;15.25;70.73
11936;BME280;6027;48.576;9.180;2023-05-27T06:49:48;97474.75;;;15.28;70.72
11936;BME280;6027;48.576;9.180;2023-05-27T06:52:14;97471.13;;;15.35;69.83
11936;BME280;6027;48.576;9.180;2023-05-27T06:54:39;97479.94;;;15.36;68.66
11936;BME280;6027;48.576;9.180;2023-05-27T06:57:05;97473.16;;;15.33;68.96
11936;BME280;6027;48.576;9.180;2023-05-27T06:59:30;97474.22;;;15.39;69.79
11936;BME280;6027;48.576;9.180;2023-05-27T07:01:56;97469.09;;;15.44;70.51
11936;BME280;6027;48.576;9.180;2023-05-27T07:04:22;97470.34;;;15.48;69.34
11936;BME280;6027;48.576;9.180;2023-05-27T07:06:47;97468.94;;;15.52;69.94
11936;BME280;6027;48.576;9.180;2023-05-27T07:09:13;97469.41;;;15.62;71.00
11936;BME280;6027;48.576;9.180;2023-05-27T07:11:39;97470.47;;;15.68;69.15
11936;BME280;6027;48.576;9.180;2023-05-27T07:14:05;97467.44;;;15.77;69.99
11936;BME280;6027;48.576;9.180;2023-05-27T07:16:31;97479.56;;;15.86;69.89
11936;BME280;6027;48.576;9.180;2023-05-27T07:18:56;97475.09;;;15.94;69.91
11936;BME280;6027;48.576;9.180;2023-05-27T07:21:22;97476.31;;;15.98;68.37
11936;BME280;6027;48.576;9.180;2023-05-27T07:23:47;97480.63;;;15.92;69.10
11936;BME280;6027;48.576;9.180;2023-05-27T07:26:12;97471.78;;;15.98;69.73
11936;BME280;6027;48.576;9.180;2023-05-27T07:28:38;97477.38;;;16.10;70.11
11936;BME280;6027;48.576;9.180;2023-05-27T07:31:04;97482.13;;;16.14;68.79
11936;BME280;6027;48.576;9.180;2023-05-27T07:33:30;97478.00;;;16.18;68.11
11936;BME280;6027;48.576;9.180;2023-05-27T07:35:55;97475.75;;;16.22;69.26
11936;BME280;6027;48.576;9.180;2023-05-27T07:38:21;97478.88;;;16.32;68.09
11936;BME280;6027;48.576;9.180;2023-05-27T07:40:46;97480.72;;;16.32;67.23
11936;BME280;6027;48.576;9.180;2023-05-27T07:43:12;97472.28;;;16.41;66.92
11936;BME280;6027;48.576;9.180;2023-05-27T07:45:37;97474.75;;;16.49;67.25
11936;BME280;6027;48.576;9.180;2023-05-27T07:48:02;97467.75;;;16.55;65.58
11936;BME280;6027;48.576;9.180;2023-05-27T07:50:28;97468.81;;;16.54;66.18
11936;BME280;6027;48.576;9.180;2023-05-27T07:52:53;97474.75;;;16.56;65.84
11936;BME280;6027;48.576;9.180;2023-05-27T07:55:19;97465.97;;;16.69;65.68
11936;BME280;6027;48.576;9.180;2023-05-27T07:57:44;97468.84;;;16.74;66.20
11936;BME280;6027;48.576;9.180;2023-05-27T08:00:10;97471.06;;;16.77;64.55
11936;BME280;6027;48.576;9.180;2023-05-27T08:02:36;97466.16;;;16.80;65.62
11936;BME280;6027;48.576;9.180;2023-05-27T08:05:02;97462.44;;;16.88;65.44
11936;BME280;6027;48.576;9.180;2023-05-27T08:07:29;97456.25;;;16.94;63.39
11936;BME280;6027;48.576;9.180;2023-05-27T08:09:55;97458.09;;;17.00;63.93
11936;BME280;6027;48.576;9.180;2023-05-27T08:12:20;97459.13;;;17.06;64.25
11936;BME280;6027;48.576;9.180;2023-05-27T08:14:46;97462.41;;;17.08;63.49
11936;BME280;6027;48.576;9.180;2023-05-27T08:17:11;97452.50;;;17.15;63.89
11936;BME280;6027;48.576;9.180;2023-05-27T08:19:37;97445.91;;;17.17;63.53
11936;BME280;6027;48.576;9.180;2023-05-27T08:22:02;97444.25;;;17.23;64.13
11936;BME280;6027;48.576;9.180;2023-05-27T08:24:28;97447.31;;;17.33;65.21
11936;BME280;6027;48.576;9.180;2023-05-27T08:26:56;97445.84;;;17.44;63.30
11936;BME280;6027;48.576;9.180;2023-05-27T08:29:21;97434.31;;;17.50;63.16
11936;BME280;6027;48.576;9.180;2023-05-27T08:31:49;97442.06;;;17.58;63.23
11936;BME280;6027;48.576;9.180;2023-05-27T08:34:17;97433.00;;;17.59;63.16
11936;BME280;6027;48.576;9.180;2023-05-27T08:36:42;97435.06;;;17.70;63.33
11936;BME280;6027;48.576;9.180;2023-05-27T08:39:07;97430.09;;;17.74;62.24
11936;BME280;6027;48.576;9.180;2023-05-27T08:41:33;97428.41;;;17.79;60.60
11936;BME280;6027;48.576;9.180;2023-05-27T08:44:00;97425.72;;;17.79;62.26
11936;BME280;6027;48.576;9.180;2023-05-27T08:46:26;97425.50;;;17.87;62.17
11936;BME280;6027;48.576;9.180;2023-05-27T08:48:53;97418.44;;;17.93;62.99
11936;BME280;6027;48.576;9.180;2023-05-27T08:51:20;97425.84;;;17.98;62.23
11936;BME280;6027;48.576;9.180;2023-05-27T08:53:47;97424.56;;;18.07;61.45
11936;BME280;6027;48.576;9.180;2023-05-27T08:56:14;97414.25;;;18.04;62.44
11936;BME280;6027;48.576;9.180;2023-05-27T08:58:41;97419.75;;;18.15;62.56
11936;BME280;6027;48.576;9.180;2023-05-27T09:01:07;97416.53;;;18.32;62.30
11936;BME280;6027;48.576;9.180;2023-05-27T09:03:33;97414.06;;;18.30;60.86
11936;BME280;6027;48.576;9.180;2023-05-27T09:05:58;97415.44;;;18.39;60.48
11936;BME280;6027;48.576;9.180;2023-05-27T09:08:27;97411.91;;;18.45;61.52
11936;BME280;6027;48.576;9.180;2023-05-27T09:10:52;97410.03;;;18.46;63.13
11936;BME280;6027;48.576;9.180;2023-05-27T09:13:30;97408.91;;;18.60;60.24
11936;BME280;6027;48.576;9.180;2023-05-27T09:16:05;97408.03;;;18.66;60.98
11936;BME280;6027;48.576;9.180;2023-05-27T09:18:35;97407.13;;;18.72;59.58
11936;BME280;6027;48.576;9.180;2023-05-27T09:21:01;97401.72;;;18.79;59.83
11936;BME280;6027;48.576;9.180;2023-05-27T09:23:27;97400.53;;;18.93;58.64
11936;BME280;6027;48.576;9.180;2023-05-27T09:25:52;97391.88;;;18.91;58.57
11936;BME280;6027;48.576;9.180;2023-05-27T09:28:25;97404.81;;;19.01;58.21
11936;BME280;6027;48.576;9.180;2023-05-27T09:31:01;97386.25;;;18.99;59.00
11936;BME280;6027;48.576;9.180;2023-05-27T09:33:37;97388.00;;;19.05;57.89
11936;BME280;6027;48.576;9.180;2023-05-27T09:36:05;97386.75;;;19.08;56.30
11936;BME280;6027;48.576;9.180;2023-05-27T09:38:31;97395.34;;;19.16;57.52
11936;BME280;6027;48.576;9.180;2023-05-27T09:41:01;97389.66;;;19.24;57.17
11936;BME280;6027;48.576;9.180;2023-05-27T09:43:28;97393.31;;;19.30;57.17
11936;BME280;6027;48.576;9.180;2023-05-27T09:45:58;97384.81;;;19.33;57.34
11936;BME280;6027;48.576;9.180;2023-05-27T09:48:25;97390.84;;;19.47;57.80
11936;BME280;6027;48.576;9.180;2023-05-27T09:50:52;97389.38;;;19.51;56.04
11936;BME280;6027;48.576;9.180;2023-05-27T09:53:20;97381.69;;;19.54;55.17
11936;BME280;6027;48.576;9.180;2023-05-27T09:55:48;97374.44;;;19.55;57.48
11936;BME280;6027;48.576;9.180;2023-05-27T09:58:14;97374.72;;;19.65;57.08
11936;BME280;6027;48.576;9.180;2023-05-27T10:00:41;97374.41;;;19.73;58.43
11936;BME280;6027;48.576;9.180;2023-05-27T10:03:07;97373.16;;;19.87;60.80
11936;BME280;6027;48.576;9.180;2023-05-27T10:05:32;97367.63;;;20.00;56.33
11936;BME280;6027;48.576;9.180;2023-05-27T10:07:58;97362.72;;;20.09;54.13
11936;BME280;6027;48.576;9.180;2023-05-27T10:10:24;97366.59;;;20.13;53.25
11936;BME280;6027;48.576;9.180;2023-05-27T10:12:50;97361.44;;;20.12;52.71
11936;BME280;6027;48.576;9.180;2023-05-27T10:15:33;97363.81;;;20.20;53.85
11936;BME280;6027;48.576;9.180;2023-05-27T10:18:06;97362.97;;;20.19;51.91
11936;BME280;6027;48.576;9.180;2023-05-27T10:20:37;97361.81;;;20.27;52.11
11936;BME280;6027;48.576;9.180;2023-05-27T10:23:13;97373.28;;;20.34;51.90
11936;BME280;6027;48.576;9.180;2023-05-27T10:25:45;97362.31;;;20.35;51.62
11936;BME280;6027;48.576;9.180;2023-05-27T10:28:23;97360.44;;;20.36;50.36
11936;BME280;6027;48.576;9.180;2023-05-27T10:30:48;97361.13;;;20.31;52.03
11936;BME280;6027;48.576;9.180;2023-05-27T10:35:49;97351.69;;;20.52;50.49
11936;BME280;6027;48.576;9.180;2023-05-27T10:38:16;97353.47;;;20.58;51.72
11936;BME280;6027;48.576;9.180;2023-05-27T10:40:42;97348.41;;;20.62;50.51
11936;BME280;6027;48.576;9.180;2023-05-27T10:43:18;97334.97;;;20.62;50.92
11936;BME280;6027;48.576;9.180;2023-05-27T10:45:44;97345.59;;;20.68;51.43
11936;BME280;6027;48.576;9.180;2023-05-27T10:48:20;97338.84;;;20.78;50.14
11936;BME280;6027;48.576;9.180;2023-05-27T10:50:52;97341.25;;;20.79;50.22
11936;BME280;6027;48.576;9.180;2023-05-27T10:53:21;97337.75;;;20.79;50.82
11936;BME280;6027;48.576;9.180;2023-05-27T10:55:48;97335.06;;;20.79;51.25
11936;BME280;6027;48.576;9.180;2023-05-27T10:58:17;97335.75;;;20.86;50.84
11936;BME280;6027;48.576;9.180;2023-05-27T11:00:45;97345.84;;;20.90;49.52
11936;BME280;6027;48.576;9.180;2023-05-27T11:03:26;97345.00;;;20.90;48.32
11936;BME280;6027;48.576;9.180;2023-05-27T11:06:05;97334.72;;;20.87;49.11
11936;BME280;6027;48.576;9.180;2023-05-27T11:08:32;97332.03;;;20.87;48.96
11936;BME280;6027;48.576;9.180;2023-05-27T11:11:09;97319.03;;;20.84;49.50
11936;BME280;6027;48.576;9.180;2023-05-27T11:13:42;97330.94;;;20.99;49.86
11936;BME280;6027;48.576;9.180;2023-05-27T11:16:08;97329.19;;;21.05;49.02
11936;BME280;6027;48.576;9.180;2023-05-27T11:18:45;97322.25;;;21.09;48.43
11936;BME280;6027;48.576;9.180;2023-05-27T11:21:15;97332.91;;;21.04;48.20
11936;BME280;6027;48.576;9.180;2023-05-27T11:23:48;97323.34;;;20.96;47.91
11936;BME280;6027;48.576;9.180;2023-05-27T11:26:23;97319.09;;;21.12;48.85
11936;BME280;6027;48.576;9.180;2023-05-27T11:28:52;97311.50;;;21.09;48.30
11936;BME280;6027;48.576;9.180;2023-05-27T11:31:20;97310.31;;;21.28;49.25
11936;BME280;6027;48.576;9.180;2023-05-27T11:33:49;97310.88;;;21.30;47.44
11936;BME280;6027;48.576;9.180;2023-05-27T11:36:16;97303.16;;;21.34;47.90
11936;BME280;6027;48.576;9.180;2023-05-27T11:38:51;97303.81;;;21.41;47.24
11936;BME280;6027;48.576;9.180;2023-05-27T11:41:33;97290.09;;;21.43;46.53
11936;BME280;6027;48.576;9.180;2023-05-27T11:44:00;97299.75;;;21.55;48.35
11936;BME280;6027;48.576;9.180;2023-05-27T11:46:46;97291.13;;;21.53;47.50
11936;BME280;6027;48.576;9.180;2023-05-27T11:49:14;97285.91;;;21.63;46.44
11936;BME280;6027;48.576;9.180;2023-05-27T11:51:48;97284.84;;;21.64;46.06
11936;BME280;6027;48.576;9.180;2023-05-27T11:54:23;97284.22;;;21.74;47.04
11936;BME280;6027;48.576;9.180;2023-05-27T11:56:50;97289.09;;;21.77;44.93
11936;BME280;6027;48.576;9.180;2023-05-27T11:59:17;97281.59;;;21.79;46.45
11936;BME280;6027;48.576;9.180;2023-05-27T12:01:43;97273.50;;;21.79;44.92
11936;BME280;6027;48.576;9.180;2023-05-27T12:04:09;97270.06;;;21.84;45.79
11936;BME280;6027;48.576;9.180;2023-05-27T12:06:36;97272.38;;;21.92;44.46
11936;BME280;6027;48.576;9.180;2023-05-27T12:09:06;97267.47;;;21.89;43.96
11936;BME280;6027;48.576;9.180;2023-05-27T12:11:34;97257.91;;;21.81;44.86
11936;BME280;6027;48.576;9.180;2023-05-27T12:13:59;97261.50;;;21.87;46.02
11936;BME280;6027;48.576;9.180;2023-05-27T12:16:25;97256.50;;;21.95;44.65
11936;BME280;6027;48.576;9.180;2023-05-27T12:18:51;97249.19;;;21.91;45.33
11936;BME280;6027;48.576;9.180;2023-05-27T12:21:17;97238.22;;;21.97;46.16
11936;BME280;6027;48.576;9.180;2023-05-27T12:23:43;97245.13;;;22.05;44.39
11936;BME280;6027;48.576;9.180;2023-05-27T12:26:09;97248.63;;;22.05;44.64
11936;BME280;6027;48.576;9.180;2023-05-27T12:28:35;97228.69;;;22.07;43.14
11936;BME280;6027;48.576;9.180;2023-05-27T12:31:01;97237.28;;;22.03;42.52
11936;BME280;6027;48.576;9.180;2023-05-27T12:33:27;97238.31;;;22.02;43.26
11936;BME280;6027;48.576;9.180;2023-05-27T12:35:52;97236.69;;;22.01;43.86
11936;BME280;6027;48.576;9.180;2023-05-27T12:38:17;97237.28;;;22.03;42.49
11936;BME280;6027;48.576;9.180;2023-05-27T12:40:44;97234.56;;;22.03;43.12
11936;BME280;6027;48.576;9.180;2023-05-27T12:43:10;97222.72;;;22.04;42.87
11936;BME280;6027;48.576;9.180;2023-05-27T12:45:35;97228.59;;;22.18;42.64
11936;BME280;6027;48.576;9.180;2023-05-27T12:48:00;97224.59;;;22.21;42.62
11936;BME280;6027;48.576;9.180;2023-05-27T12:50:27;97219.69;;;22.18;43.49
11936;BME280;6027;48.576;9.180;2023-05-27T12:52:52;97224.66;;;22.26;44.86
11936;BME280;6027;48.576;9.180;2023-05-27T12:55:20;97221.47;;;22.29;44.32
11936;BME280;6027;48.576;9.180;2023-05-27T12:57:48;97217.72;;;22.30;45.06
11936;BME280;6027;48.576;9.180;2023-05-27T13:00:14;97214.00;;;22.36;44.25
11936;BME280;6027;48.576;9.180;2023-05-27T13:02:40;97214.50;;;22.33;44.11
11936;BME280;6027;48.576;9.180;2023-05-27T13:05:07;97205.66;;;22.37;44.62
11936;BME280;6027;48.576;9.180;2023-05-27T13:07:36;97204.84;;;22.37;42.81
11936;BME280;6027;48.576;9.180;2023-05-27T13:10:04;97197.41;;;22.44;43.11
11936;BME280;6027;48.576;9.180;2023-05-27T13:12:31;97201.47;;;22.47;43.25
11936;BME280;6027;48.576;9.180;2023-05-27T13:14:58;97206.22;;;22.39;43.24
11936;BME280;6027;48.576;9.180;2023-05-27T13:17:23;97197.81;;;22.36;43.64
11936;BME280;6027;48.576;9.180;2023-05-27T13:19:49;97191.19;;;22.44;43.65